Time,TemperatureF,DewpointF,PressureIn,WindDirection,WindDirectionDegrees,WindSpeedMPH,WindSpeedGustMPH,Humidity,HourlyPrecipIn,Conditions,Clouds,dailyrainin,SoftwareType,DateUTC
2013-07-22 03:43:00,72.0,70.0,29.86,SW,230,0.0,0.0,94,-99.99,,,-99.99,,2013-07-22 07:43:00,
2013-07-22 03:53:00,72.0,70.0,29.86,SW,231,0.0,0.0,95,-99.99,,,-99.99,,2013-07-22 07:53:00,
2013-07-22 04:43:00,71.0,69.0,29.85,East,86,0.0,0.0,94,-99.99,,,-99.99,,2013-07-22 08:43:00,
2013-07-22 04:52:00,71.0,69.0,29.84,ESE,114,0.0,0.0,94,-99.99,,,-99.99,,2013-07-22 08:52:00,
2013-07-22 05:02:00,71.0,69.0,29.84,ESE,114,0.0,0.0,94,-99.99,,,-99.99,,2013-07-22 09:02:00,
2013-07-22 05:11:00,71.0,69.0,29.84,ESE,114,0.0,0.0,94,-99.99,,,-99.99,,2013-07-22 09:11:00,
2013-07-22 05:22:00,71.0,69.0,29.84,ESE,114,0.0,0.0,94,-99.99,,,-99.99,,2013-07-22 09:22:00,
2013-07-22 05:33:00,71.0,69.0,29.84,ESE,114,0.0,0.0,94,-99.99,,,-99.99,,2013-07-22 09:33:00,
2013-07-22 06:02:00,70.0,69.0,29.85,ESE,114,0.0,0.0,96,-99.99,,,-99.99,,2013-07-22 10:02:00,
2013-07-22 06:11:00,70.0,69.0,29.85,ESE,115,0.0,0.0,96,-99.99,,,-99.99,,2013-07-22 10:11:00,
2013-07-22 06:22:00,70.0,69.0,29.85,ESE,115,0.0,0.0,96,-99.99,,,-99.99,,2013-07-22 10:22:00,
2013-07-22 06:32:00,70.0,69.0,29.86,ESE,114,0.0,0.0,96,-99.99,,,-99.99,,2013-07-22 10:32:00,
2013-07-22 06:43:00,70.0,69.0,29.86,ESE,114,0.0,0.0,96,-99.99,,,-99.99,,2013-07-22 10:43:00,
2013-07-22 06:52:00,69.0,68.0,29.87,ESE,114,0.0,0.0,96,-99.99,,,-99.99,,2013-07-22 10:52:00,
2013-07-22 07:02:00,69.0,68.0,29.87,ESE,114,0.0,0.0,96,-99.99,,,-99.99,,2013-07-22 11:02:00,
2013-07-22 07:11:00,69.0,68.0,29.88,ESE,115,0.0,0.0,97,-99.99,,,-99.99,,2013-07-22 11:11:00,
2013-07-22 07:23:00,69.0,68.0,29.88,ESE,115,0.0,0.0,97,-99.99,,,-99.99,,2013-07-22 11:23:00,
2013-07-22 07:32:00,70.0,69.0,29.88,ESE,115,0.0,0.0,97,-99.99,,,-99.99,,2013-07-22 11:32:00,
2013-07-22 07:43:00,70.0,69.0,29.89,ESE,114,0.0,0.0,97,-99.99,,,-99.99,,2013-07-22 11:43:00,
2013-07-22 07:52:00,70.0,69.0,29.89,ESE,114,0.0,0.0,97,-99.99,,,-99.99,,2013-07-22 11:52:00,
2013-07-22 08:02:00,70.0,69.0,29.89,ESE,114,0.0,0.0,97,-99.99,,,-99.99,,2013-07-22 12:02:00,
2013-07-22 08:11:00,70.0,69.0,29.89,ESE,114,0.0,0.0,97,-99.99,,,-99.99,,2013-07-22 12:11:00,
2013-07-22 09:43:00,76.0,70.0,29.89,East,94,1.0,0.0,82,-99.99,,,-99.99,,2013-07-22 13:43:00,
2013-07-22 09:53:00,76.0,70.0,29.89,East,94,1.0,0.0,82,-99.99,,,-99.99,,2013-07-22 13:53:00,
2013-07-22 10:02:00,76.0,70.0,29.89,East,94,1.0,0.0,82,-99.99,,,-99.99,,2013-07-22 14:02:00,
2013-07-22 10:22:00,78.0,71.0,29.88,SSE,153,3.0,0.0,78,-99.99,,,-99.99,,2013-07-22 14:22:00,
2013-07-22 10:32:00,78.0,71.0,29.88,SSE,153,3.0,0.0,78,-99.99,,,-99.99,,2013-07-22 14:32:00,
2013-07-22 10:53:00,78.0,71.0,29.89,SE,145,1.0,0.0,79,-99.99,,,-99.99,,2013-07-22 14:53:00,
2013-07-22 11:02:00,79.0,70.0,29.88,SE,143,0.0,0.0,75,-99.99,,,-99.99,,2013-07-22 15:02:00,
2013-07-22 11:11:00,79.0,70.0,29.88,SE,143,0.0,0.0,75,-99.99,,,-99.99,,2013-07-22 15:11:00,
2013-07-22 11:22:00,80.0,71.0,29.88,SE,146,1.0,0.0,74,-99.99,,,-99.99,,2013-07-22 15:22:00,
2013-07-22 11:52:00,81.0,69.0,29.88,NW,324,0.0,0.0,67,-99.99,,,-99.99,,2013-07-22 15:52:00,
2013-07-22 12:01:00,81.0,69.0,29.88,ESE,115,3.0,0.0,68,-99.99,,,-99.99,,2013-07-22 16:01:00,
2013-07-22 12:11:00,82.0,69.0,29.87,ESE,109,2.0,0.0,66,-99.99,,,-99.99,,2013-07-22 16:11:00,
2013-07-22 12:22:00,82.0,69.0,29.87,ESE,109,2.0,0.0,66,-99.99,,,-99.99,,2013-07-22 16:22:00,
2013-07-22 12:32:00,83.0,70.0,29.87,East,92,1.0,0.0,66,-99.99,,,-99.99,,2013-07-22 16:32:00,
2013-07-22 12:43:00,84.0,70.0,29.86,NE,41,0.0,0.0,64,-99.99,,,-99.99,,2013-07-22 16:43:00,
2013-07-22 13:11:00,84.0,70.0,29.86,SSE,153,1.0,0.0,63,-99.99,,,-99.99,,2013-07-22 17:11:00,
2013-07-22 13:32:00,86.0,70.0,29.84,SE,125,2.0,0.0,60,-99.99,,,-99.99,,2013-07-22 17:32:00,
2013-07-22 13:43:00,86.0,71.0,29.84,NNW,334,4.0,0.0,61,-99.99,,,-99.99,,2013-07-22 17:43:00,
2013-07-22 13:52:00,86.0,71.0,29.84,NNW,334,4.0,0.0,61,-99.99,,,-99.99,,2013-07-22 17:52:00,
2013-07-22 16:52:00,85.0,71.0,29.78,NNE,23,4.0,0.0,63,-99.99,,,-99.99,,2013-07-22 20:52:00,
2013-07-22 17:12:00,82.0,70.0,29.78,NNW,329,4.0,14.0,68,-99.99,,,-99.99,,2013-07-22 21:12:00,
2013-07-22 18:01:00,83.0,72.0,29.76,South,172,0.0,0.0,69,-99.99,,,-99.99,,2013-07-22 22:01:00,
2013-07-22 18:22:00,82.0,71.0,29.76,East,82,1.0,0.0,69,-99.99,,,-99.99,,2013-07-22 22:22:00,
2013-07-22 18:32:00,82.0,71.0,29.76,East,82,1.0,0.0,69,-99.99,,,-99.99,,2013-07-22 22:32:00,
2013-07-22 20:01:00,81.0,71.0,29.75,SE,128,0.0,0.0,72,-99.99,,,-99.99,,2013-07-23 00:01:00,
2013-07-22 20:43:00,78.0,71.0,29.75,ESE,102,0.0,0.0,80,-99.99,,,-99.99,,2013-07-23 00:43:00,
2013-07-22 20:52:00,78.0,71.0,29.75,ESE,102,0.0,0.0,80,-99.99,,,-99.99,,2013-07-23 00:52:00,
2013-07-22 21:01:00,78.0,71.0,29.75,ESE,102,0.0,0.0,80,-99.99,,,-99.99,,2013-07-23 01:01:00,
2013-07-22 21:11:00,78.0,71.0,29.75,ESE,102,0.0,0.0,80,-99.99,,,-99.99,,2013-07-23 01:11:00,
2013-07-22 21:32:00,76.0,71.0,29.75,East,101,0.0,0.0,85,-99.99,,,-99.99,,2013-07-23 01:32:00,
2013-07-22 21:43:00,76.0,71.0,29.76,East,101,0.0,0.0,85,-99.99,,,-99.99,,2013-07-23 01:43:00,
2013-07-22 22:02:00,76.0,71.0,29.76,East,101,0.0,0.0,85,-99.99,,,-99.99,,2013-07-23 02:02:00,
2013-07-22 22:11:00,76.0,71.0,29.76,East,101,0.0,0.0,85,-99.99,,,-99.99,,2013-07-23 02:11:00,
2013-07-22 22:22:00,76.0,71.0,29.76,East,101,0.0,0.0,85,-99.99,,,-99.99,,2013-07-23 02:22:00,